sensor_id;sensor_type;location;lat;lon;timestamp;temperature;humidity
9984;DHT22;16737;50.932;6.780;2024-01-16T00:02:23;4.20;98.90
9984;DHT22;16737;50.932;6.780;2024-01-16T00:04:50;4.20;98.90
9984;DHT22;16737;50.932;6.780;2024-01-16T00:07:17;4.20;98.90
9984;DHT22;16737;50.932;6.780;2024-01-16T00:09:44;4.20;98.90
9984;DHT22;16737;50.932;6.780;2024-01-16T00:12:12;4.20;98.90
9984;DHT22;16737;50.932;6.780;2024-01-16T00:14:41;4.10;99.00
9984;DHT22;16737;50.932;6.780;2024-01-16T00:17:08;4.20;98.90
9984;DHT22;16737;50.932;6.780;2024-01-16T00:19:35;4.10;98.90
9984;DHT22;16737;50.932;6.780;2024-01-16T00:22:02;4.10;99.20
9984;DHT22;16737;50.932;6.780;2024-01-16T00:24:30;4.10;98.80
9984;DHT22;16737;50.932;6.780;2024-01-16T00:26:57;4.10;98.80
9984;DHT22;16737;50.932;6.780;2024-01-16T00:29:24;4.10;98.80
9984;DHT22;16737;50.932;6.780;2024-01-16T00:31:52;4.10;98.80
9984;DHT22;16737;50.932;6.780;2024-01-16T00:34:19;4.10;98.80
9984;DHT22;16737;50.932;6.780;2024-01-16T00:36:46;4.10;98.80
9984;DHT22;16737;50.932;6.780;2024-01-16T00:39:13;4.00;98.70
9984;DHT22;16737;50.932;6.780;2024-01-16T00:41:40;4.00;98.70
9984;DHT22;16737;50.932;6.780;2024-01-16T00:44:07;4.00;98.80
9984;DHT22;16737;50.932;6.780;2024-01-16T00:46:34;4.00;98.80
9984;DHT22;16737;50.932;6.780;2024-01-16T00:49:02;4.00;98.80
9984;DHT22;16737;50.932;6.780;2024-01-16T00:51:29;3.90;98.80
9984;DHT22;16737;50.932;6.780;2024-01-16T00:53:56;3.90;98.80
9984;DHT22;16737;50.932;6.780;2024-01-16T00:56:23;3.90;98.80
9984;DHT22;16737;50.932;6.780;2024-01-16T00:58:52;3.90;98.90
9984;DHT22;16737;50.932;6.780;2024-01-16T01:01:20;3.90;98.90
9984;DHT22;16737;50.932;6.780;2024-01-16T01:03:47;3.90;98.90
9984;DHT22;16737;50.932;6.780;2024-01-16T01:06:15;3.90;98.90
9984;DHT22;16737;50.932;6.780;2024-01-16T01:08:42;3.90;98.90
9984;DHT22;16737;50.932;6.780;2024-01-16T01:11:09;3.90;98.90
9984;DHT22;16737;50.932;6.780;2024-01-16T01:13:37;3.90;98.90
9984;DHT22;16737;50.932;6.780;2024-01-16T01:16:05;3.90;98.90
9984;DHT22;16737;50.932;6.780;2024-01-16T01:18:32;3.90;98.90
9984;DHT22;16737;50.932;6.780;2024-01-16T01:20:59;3.90;98.90
9984;DHT22;16737;50.932;6.780;2024-01-16T01:23:28;3.90;98.90
9984;DHT22;16737;50.932;6.780;2024-01-16T01:25:54;3.90;98.90
9984;DHT22;16737;50.932;6.780;2024-01-16T01:28:21;3.90;98.90
9984;DHT22;16737;50.932;6.780;2024-01-16T01:30:48;3.90;98.90
9984;DHT22;16737;50.932;6.780;2024-01-16T01:33:16;3.90;98.90
9984;DHT22;16737;50.932;6.780;2024-01-16T01:35:42;3.90;98.90
9984;DHT22;16737;50.932;6.780;2024-01-16T01:38:09;3.90;98.90
9984;DHT22;16737;50.932;6.780;2024-01-16T01:40:38;3.90;98.90
9984;DHT22;16737;50.932;6.780;2024-01-16T01:43:18;3.90;98.90
9984;DHT22;16737;50.932;6.780;2024-01-16T01:45:47;3.90;98.90
9984;DHT22;16737;50.932;6.780;2024-01-16T01:48:26;3.90;98.90
9984;DHT22;16737;50.932;6.780;2024-01-16T01:50:53;3.80;98.80
9984;DHT22;16737;50.932;6.780;2024-01-16T01:53:20;3.80;98.80
9984;DHT22;16737;50.932;6.780;2024-01-16T01:55:49;3.90;98.90
9984;DHT22;16737;50.932;6.780;2024-01-16T01:58:16;3.90;98.90
9984;DHT22;16737;50.932;6.780;2024-01-16T02:00:43;3.80;98.90
9984;DHT22;16737;50.932;6.780;2024-01-16T02:03:12;3.80;98.90
9984;DHT22;16737;50.932;6.780;2024-01-16T02:05:39;3.80;98.90
9984;DHT22;16737;50.932;6.780;2024-01-16T02:08:06;3.80;98.90
9984;DHT22;16737;50.932;6.780;2024-01-16T02:10:35;3.80;98.90
9984;DHT22;16737;50.932;6.780;2024-01-16T02:13:05;3.80;98.90
9984;DHT22;16737;50.932;6.780;2024-01-16T02:15:32;3.80;98.90
9984;DHT22;16737;50.932;6.780;2024-01-16T02:17:59;3.80;98.90
9984;DHT22;16737;50.932;6.780;2024-01-16T02:20:26;3.80;98.90
9984;DHT22;16737;50.932;6.780;2024-01-16T02:22:55;3.80;98.90
9984;DHT22;16737;50.932;6.780;2024-01-16T02:25:25;3.80;98.90
9984;DHT22;16737;50.932;6.780;2024-01-16T02:27:52;3.80;98.90
9984;DHT22;16737;50.932;6.780;2024-01-16T02:30:20;3.80;99.00
9984;DHT22;16737;50.932;6.780;2024-01-16T02:32:46;3.80;99.00
9984;DHT22;16737;50.932;6.780;2024-01-16T02:35:14;3.80;99.00
9984;DHT22;16737;50.932;6.780;2024-01-16T02:37:42;3.80;98.90
9984;DHT22;16737;50.932;6.780;2024-01-16T02:40:11;3.80;98.90
9984;DHT22;16737;50.932;6.780;2024-01-16T02:42:40;3.80;98.90
9984;DHT22;16737;50.932;6.780;2024-01-16T02:45:07;3.80;98.90
9984;DHT22;16737;50.932;6.780;2024-01-16T02:47:35;3.80;98.90
9984;DHT22;16737;50.932;6.780;2024-01-16T02:50:02;3.80;98.90
9984;DHT22;16737;50.932;6.780;2024-01-16T02:52:30;3.80;98.90
9984;DHT22;16737;50.932;6.780;2024-01-16T02:54:57;3.80;98.90
9984;DHT22;16737;50.932;6.780;2024-01-16T02:57:24;3.80;98.90
9984;DHT22;16737;50.932;6.780;2024-01-16T02:59:53;3.80;98.90
9984;DHT22;16737;50.932;6.780;2024-01-16T03:02:20;3.80;98.90
9984;DHT22;16737;50.932;6.780;2024-01-16T03:04:48;3.80;98.90
9984;DHT22;16737;50.932;6.780;2024-01-16T03:07:15;3.80;98.90
9984;DHT22;16737;50.932;6.780;2024-01-16T03:09:42;3.80;98.90
9984;DHT22;16737;50.932;6.780;2024-01-16T03:12:09;3.80;98.90
9984;DHT22;16737;50.932;6.780;2024-01-16T03:14:36;3.80;98.90
9984;DHT22;16737;50.932;6.780;2024-01-16T03:17:05;3.80;98.90
9984;DHT22;16737;50.932;6.780;2024-01-16T03:19:32;3.80;98.90
9984;DHT22;16737;50.932;6.780;2024-01-16T03:21:59;3.80;98.90
9984;DHT22;16737;50.932;6.780;2024-01-16T03:24:26;3.80;98.90
9984;DHT22;16737;50.932;6.780;2024-01-16T03:26:54;3.80;98.90
9984;DHT22;16737;50.932;6.780;2024-01-16T03:29:21;3.80;99.00
9984;DHT22;16737;50.932;6.780;2024-01-16T03:31:47;3.80;98.90
9984;DHT22;16737;50.932;6.780;2024-01-16T03:34:16;3.80;98.90
9984;DHT22;16737;50.932;6.780;2024-01-16T03:36:43;3.80;99.00
9984;DHT22;16737;50.932;6.780;2024-01-16T03:39:10;3.80;98.90
9984;DHT22;16737;50.932;6.780;2024-01-16T03:41:37;3.80;98.90
9984;DHT22;16737;50.932;6.780;2024-01-16T03:44:04;3.80;98.90
9984;DHT22;16737;50.932;6.780;2024-01-16T03:46:31;3.80;98.90
9984;DHT22;16737;50.932;6.780;2024-01-16T03:48:58;3.80;98.90
9984;DHT22;16737;50.932;6.780;2024-01-16T03:51:26;3.80;98.90
9984;DHT22;16737;50.932;6.780;2024-01-16T03:53:53;3.80;98.90
9984;DHT22;16737;50.932;6.780;2024-01-16T03:56:21;3.80;98.90
9984;DHT22;16737;50.932;6.780;2024-01-16T03:58:48;3.80;98.90
9984;DHT22;16737;50.932;6.780;2024-01-16T04:01:15;3.80;98.90
9984;DHT22;16737;50.932;6.780;2024-01-16T04:03:42;3.80;98.90
9984;DHT22;16737;50.932;6.780;2024-01-16T04:06:16;3.70;98.90
9984;DHT22;16737;50.932;6.780;2024-01-16T04:08:45;3.70;98.90
9984;DHT22;16737;50.932;6.780;2024-01-16T04:11:12;3.80;98.90
9984;DHT22;16737;50.932;6.780;2024-01-16T04:13:40;3.70;98.90
9984;DHT22;16737;50.932;6.780;2024-01-16T04:16:08;3.70;98.90
9984;DHT22;16737;50.932;6.780;2024-01-16T04:18:36;3.70;98.90
9984;DHT22;16737;50.932;6.780;2024-01-16T04:21:04;3.70;98.90
9984;DHT22;16737;50.932;6.780;2024-01-16T04:23:31;3.70;98.90
9984;DHT22;16737;50.932;6.780;2024-01-16T04:26:00;3.70;98.90
9984;DHT22;16737;50.932;6.780;2024-01-16T04:28:27;3.60;98.90
9984;DHT22;16737;50.932;6.780;2024-01-16T04:30:54;3.60;98.90
9984;DHT22;16737;50.932;6.780;2024-01-16T04:33:21;3.60;98.90
9984;DHT22;16737;50.932;6.780;2024-01-16T04:35:48;3.60;98.90
9984;DHT22;16737;50.932;6.780;2024-01-16T04:38:15;3.60;98.90
9984;DHT22;16737;50.932;6.780;2024-01-16T04:40:42;3.60;99.20
9984;DHT22;16737;50.932;6.780;2024-01-16T04:43:10;3.60;98.90
9984;DHT22;16737;50.932;6.780;2024-01-16T04:45:39;3.60;98.90
9984;DHT22;16737;50.932;6.780;2024-01-16T04:48:06;3.60;98.90
9984;DHT22;16737;50.932;6.780;2024-01-16T04:50:33;3.60;98.90
9984;DHT22;16737;50.932;6.780;2024-01-16T04:53:01;3.60;98.90
9984;DHT22;16737;50.932;6.780;2024-01-16T04:55:28;3.60;98.90
9984;DHT22;16737;50.932;6.780;2024-01-16T04:57:56;3.60;99.00
9984;DHT22;16737;50.932;6.780;2024-01-16T05:00:26;3.60;99.00
9984;DHT22;16737;50.932;6.780;2024-01-16T05:02:53;3.60;99.00
9984;DHT22;16737;50.932;6.780;2024-01-16T05:05:23;3.60;99.00
9984;DHT22;16737;50.932;6.780;2024-01-16T05:07:50;3.60;99.00
9984;DHT22;16737;50.932;6.780;2024-01-16T05:10:16;3.60;99.00
9984;DHT22;16737;50.932;6.780;2024-01-16T05:12:46;3.60;99.00
9984;DHT22;16737;50.932;6.780;2024-01-16T05:15:13;3.60;98.90
9984;DHT22;16737;50.932;6.780;2024-01-16T05:17:42;3.60;99.00
9984;DHT22;16737;50.932;6.780;2024-01-16T05:20:09;3.70;99.00
9984;DHT22;16737;50.932;6.780;2024-01-16T05:22:36;3.60;99.00
9984;DHT22;16737;50.932;6.780;2024-01-16T05:25:05;3.70;99.00
9984;DHT22;16737;50.932;6.780;2024-01-16T05:27:33;3.70;99.00
9984;DHT22;16737;50.932;6.780;2024-01-16T05:30:00;3.70;99.00
9984;DHT22;16737;50.932;6.780;2024-01-16T05:32:28;3.70;99.00
9984;DHT22;16737;50.932;6.780;2024-01-16T05:34:56;3.70;98.90
9984;DHT22;16737;50.932;6.780;2024-01-16T05:37:23;3.70;98.90
9984;DHT22;16737;50.932;6.780;2024-01-16T05:39:50;3.70;98.90
9984;DHT22;16737;50.932;6.780;2024-01-16T05:42:17;3.70;98.90
9984;DHT22;16737;50.932;6.780;2024-01-16T05:44:44;3.70;98.90
9984;DHT22;16737;50.932;6.780;2024-01-16T05:47:12;3.70;98.90
9984;DHT22;16737;50.932;6.780;2024-01-16T05:49:39;3.70;98.90
9984;DHT22;16737;50.932;6.780;2024-01-16T05:52:09;3.70;98.80
9984;DHT22;16737;50.932;6.780;2024-01-16T05:54:35;3.70;98.80
9984;DHT22;16737;50.932;6.780;2024-01-16T05:57:03;3.70;98.80
9984;DHT22;16737;50.932;6.780;2024-01-16T05:59:30;3.70;98.70
9984;DHT22;16737;50.932;6.780;2024-01-16T06:01:57;3.70;98.70
9984;DHT22;16737;50.932;6.780;2024-01-16T06:04:23;3.70;98.70
9984;DHT22;16737;50.932;6.780;2024-01-16T06:06:50;3.70;98.70
9984;DHT22;16737;50.932;6.780;2024-01-16T06:09:18;3.70;98.70
9984;DHT22;16737;50.932;6.780;2024-01-16T06:11:45;3.70;98.70
9984;DHT22;16737;50.932;6.780;2024-01-16T06:14:13;3.70;98.70
9984;DHT22;16737;50.932;6.780;2024-01-16T06:16:46;3.70;98.70
9984;DHT22;16737;50.932;6.780;2024-01-16T06:19:14;3.70;98.70
9984;DHT22;16737;50.932;6.780;2024-01-16T06:21:41;3.70;98.70
9984;DHT22;16737;50.932;6.780;2024-01-16T06:24:08;3.80;98.70
9984;DHT22;16737;50.932;6.780;2024-01-16T06:26:38;3.80;98.70
9984;DHT22;16737;50.932;6.780;2024-01-16T06:29:05;3.80;98.70
9984;DHT22;16737;50.932;6.780;2024-01-16T06:31:32;3.80;98.70
9984;DHT22;16737;50.932;6.780;2024-01-16T06:33:59;3.80;98.70
9984;DHT22;16737;50.932;6.780;2024-01-16T06:36:26;3.80;98.70
9984;DHT22;16737;50.932;6.780;2024-01-16T06:38:53;3.80;98.60
9984;DHT22;16737;50.932;6.780;2024-01-16T06:41:20;3.80;98.60
9984;DHT22;16737;50.932;6.780;2024-01-16T06:43:49;3.80;98.60
9984;DHT22;16737;50.932;6.780;2024-01-16T06:46:16;3.80;98.50
9984;DHT22;16737;50.932;6.780;2024-01-16T06:48:43;3.80;98.50
9984;DHT22;16737;50.932;6.780;2024-01-16T06:51:12;3.80;98.50
9984;DHT22;16737;50.932;6.780;2024-01-16T06:53:41;3.80;98.50
9984;DHT22;16737;50.932;6.780;2024-01-16T06:56:09;3.80;98.50
9984;DHT22;16737;50.932;6.780;2024-01-16T06:58:36;3.80;98.40
9984;DHT22;16737;50.932;6.780;2024-01-16T07:01:09;3.80;98.40
9984;DHT22;16737;50.932;6.780;2024-01-16T07:03:36;3.80;98.40
9984;DHT22;16737;50.932;6.780;2024-01-16T07:06:04;3.80;98.40
9984;DHT22;16737;50.932;6.780;2024-01-16T07:08:31;3.80;98.40
9984;DHT22;16737;50.932;6.780;2024-01-16T07:10:58;3.70;98.30
9984;DHT22;16737;50.932;6.780;2024-01-16T07:13:25;3.70;98.30
9984;DHT22;16737;50.932;6.780;2024-01-16T07:15:52;3.70;98.30
9984;DHT22;16737;50.932;6.780;2024-01-16T07:18:20;3.70;98.30
9984;DHT22;16737;50.932;6.780;2024-01-16T07:20:47;3.70;98.20
9984;DHT22;16737;50.932;6.780;2024-01-16T07:23:14;3.70;98.30
9984;DHT22;16737;50.932;6.780;2024-01-16T07:25:41;3.70;98.30
9984;DHT22;16737;50.932;6.780;2024-01-16T07:28:15;3.70;98.30
9984;DHT22;16737;50.932;6.780;2024-01-16T07:30:47;3.70;98.20
9984;DHT22;16737;50.932;6.780;2024-01-16T07:33:15;3.70;98.30
9984;DHT22;16737;50.932;6.780;2024-01-16T07:35:43;3.70;98.20
9984;DHT22;16737;50.932;6.780;2024-01-16T07:38:13;3.70;98.20
9984;DHT22;16737;50.932;6.780;2024-01-16T07:40:40;3.70;98.20
9984;DHT22;16737;50.932;6.780;2024-01-16T07:43:07;3.70;98.20
9984;DHT22;16737;50.932;6.780;2024-01-16T07:45:34;3.70;98.20
9984;DHT22;16737;50.932;6.780;2024-01-16T07:48:01;3.70;98.30
9984;DHT22;16737;50.932;6.780;2024-01-16T07:50:28;3.70;98.20
9984;DHT22;16737;50.932;6.780;2024-01-16T07:52:58;3.70;98.20
9984;DHT22;16737;50.932;6.780;2024-01-16T07:55:25;3.70;98.10
9984;DHT22;16737;50.932;6.780;2024-01-16T07:57:53;3.70;98.10
9984;DHT22;16737;50.932;6.780;2024-01-16T08:00:21;3.70;98.10
9984;DHT22;16737;50.932;6.780;2024-01-16T08:02:48;3.70;98.00
9984;DHT22;16737;50.932;6.780;2024-01-16T08:05:15;3.70;98.00
9984;DHT22;16737;50.932;6.780;2024-01-16T08:07:42;3.70;98.00
9984;DHT22;16737;50.932;6.780;2024-01-16T08:10:11;3.70;98.00
9984;DHT22;16737;50.932;6.780;2024-01-16T08:12:38;3.70;97.90
9984;DHT22;16737;50.932;6.780;2024-01-16T08:15:06;3.70;97.90
9984;DHT22;16737;50.932;6.780;2024-01-16T08:17:34;3.60;97.90
9984;DHT22;16737;50.932;6.780;2024-01-16T08:20:01;3.60;97.80
9984;DHT22;16737;50.932;6.780;2024-01-16T08:22:29;3.60;97.80
9984;DHT22;16737;50.932;6.780;2024-01-16T08:24:56;3.60;97.80
9984;DHT22;16737;50.932;6.780;2024-01-16T08:27:24;3.60;97.80
9984;DHT22;16737;50.932;6.780;2024-01-16T08:29:51;3.60;97.80
9984;DHT22;16737;50.932;6.780;2024-01-16T08:32:18;3.60;97.80
9984;DHT22;16737;50.932;6.780;2024-01-16T08:34:45;3.60;97.70
9984;DHT22;16737;50.932;6.780;2024-01-16T08:37:12;3.60;97.80
9984;DHT22;16737;50.932;6.780;2024-01-16T08:39:39;3.60;97.80
9984;DHT22;16737;50.932;6.780;2024-01-16T08:42:06;3.60;97.80
9984;DHT22;16737;50.932;6.780;2024-01-16T08:44:38;3.60;97.80
9984;DHT22;16737;50.932;6.780;2024-01-16T08:47:06;3.60;97.80
9984;DHT22;16737;50.932;6.780;2024-01-16T08:49:35;3.70;97.80
9984;DHT22;16737;50.932;6.780;2024-01-16T08:52:04;3.70;97.80
9984;DHT22;16737;50.932;6.780;2024-01-16T08:54:32;3.70;97.70
9984;DHT22;16737;50.932;6.780;2024-01-16T08:56:58;3.70;97.70
9984;DHT22;16737;50.932;6.780;2024-01-16T08:59:25;3.70;97.60
9984;DHT22;16737;50.932;6.780;2024-01-16T09:01:55;3.60;97.50
9984;DHT22;16737;50.932;6.780;2024-01-16T09:04:22;3.60;97.50
9984;DHT22;16737;50.932;6.780;2024-01-16T09:06:49;3.60;97.50
9984;DHT22;16737;50.932;6.780;2024-01-16T09:09:16;3.60;97.50
9984;DHT22;16737;50.932;6.780;2024-01-16T09:11:43;3.60;97.50
9984;DHT22;16737;50.932;6.780;2024-01-16T09:14:10;3.60;97.50
9984;DHT22;16737;50.932;6.780;2024-01-16T09:16:37;3.60;97.50
9984;DHT22;16737;50.932;6.780;2024-01-16T09:19:05;3.60;97.50
9984;DHT22;16737;50.932;6.780;2024-01-16T09:21:32;3.60;97.50
9984;DHT22;16737;50.932;6.780;2024-01-16T09:23:59;3.60;97.50
9984;DHT22;16737;50.932;6.780;2024-01-16T09:26:26;3.60;97.50
9984;DHT22;16737;50.932;6.780;2024-01-16T09:28:53;3.60;97.50
9984;DHT22;16737;50.932;6.780;2024-01-16T09:31:20;3.60;97.50
9984;DHT22;16737;50.932;6.780;2024-01-16T09:33:47;3.60;97.50
9984;DHT22;16737;50.932;6.780;2024-01-16T09:36:15;3.60;97.50
9984;DHT22;16737;50.932;6.780;2024-01-16T09:38:43;3.60;97.40
9984;DHT22;16737;50.932;6.780;2024-01-16T09:41:13;3.60;97.40
9984;DHT22;16737;50.932;6.780;2024-01-16T09:43:41;3.60;97.40
9984;DHT22;16737;50.932;6.780;2024-01-16T09:46:08;3.60;97.40
9984;DHT22;16737;50.932;6.780;2024-01-16T09:48:37;3.60;97.50
9984;DHT22;16737;50.932;6.780;2024-01-16T09:51:06;3.70;97.50
9984;DHT22;16737;50.932;6.780;2024-01-16T09:53:35;3.60;97.40
9984;DHT22;16737;50.932;6.780;2024-01-16T09:56:04;3.70;97.50
9984;DHT22;16737;50.932;6.780;2024-01-16T09:58:36;3.70;97.50
9984;DHT22;16737;50.932;6.780;2024-01-16T10:01:05;3.70;97.50
9984;DHT22;16737;50.932;6.780;2024-01-16T10:03:34;3.80;97.50
9984;DHT22;16737;50.932;6.780;2024-01-16T10:06:03;3.80;97.50
9984;DHT22;16737;50.932;6.780;2024-01-16T10:08:32;3.80;97.70
9984;DHT22;16737;50.932;6.780;2024-01-16T10:11:01;3.80;97.40
9984;DHT22;16737;50.932;6.780;2024-01-16T10:13:29;3.80;97.40
9984;DHT22;16737;50.932;6.780;2024-01-16T10:15:56;3.80;97.40
9984;DHT22;16737;50.932;6.780;2024-01-16T10:18:26;3.80;97.40
9984;DHT22;16737;50.932;6.780;2024-01-16T10:20:54;3.90;97.40
9984;DHT22;16737;50.932;6.780;2024-01-16T10:23:25;3.90;97.40
9984;DHT22;16737;50.932;6.780;2024-01-16T10:26:07;3.90;97.40
9984;DHT22;16737;50.932;6.780;2024-01-16T10:28:35;3.90;97.20
9984;DHT22;16737;50.932;6.780;2024-01-16T10:31:04;3.90;97.40
9984;DHT22;16737;50.932;6.780;2024-01-16T10:33:32;3.90;97.40
9984;DHT22;16737;50.932;6.780;2024-01-16T10:36:08;4.00;97.40
9984;DHT22;16737;50.932;6.780;2024-01-16T10:38:37;4.00;97.20
9984;DHT22;16737;50.932;6.780;2024-01-16T10:41:08;4.00;97.20
9984;DHT22;16737;50.932;6.780;2024-01-16T10:43:36;4.00;97.20
9984;DHT22;16737;50.932;6.780;2024-01-16T10:46:11;4.00;97.20
9984;DHT22;16737;50.932;6.780;2024-01-16T10:48:40;4.10;97.10
9984;DHT22;16737;50.932;6.780;2024-01-16T10:51:10;4.10;97.20
9984;DHT22;16737;50.932;6.780;2024-01-16T10:53:42;4.10;97.20
9984;DHT22;16737;50.932;6.780;2024-01-16T10:56:12;4.10;97.20
9984;DHT22;16737;50.932;6.780;2024-01-16T10:58:42;4.20;97.30
9984;DHT22;16737;50.932;6.780;2024-01-16T11:01:11;4.20;97.40
9984;DHT22;16737;50.932;6.780;2024-01-16T11:03:46;4.30;97.40
9984;DHT22;16737;50.932;6.780;2024-01-16T11:06:16;4.30;97.40
9984;DHT22;16737;50.932;6.780;2024-01-16T11:08:46;4.40;97.40
9984;DHT22;16737;50.932;6.780;2024-01-16T11:11:16;4.40;97.30
9984;DHT22;16737;50.932;6.780;2024-01-16T11:13:43;4.50;97.10
9984;DHT22;16737;50.932;6.780;2024-01-16T11:16:15;4.50;97.00
9984;DHT22;16737;50.932;6.780;2024-01-16T11:19:08;4.50;97.00
9984;DHT22;16737;50.932;6.780;2024-01-16T11:22:19;4.50;96.90
9984;DHT22;16737;50.932;6.780;2024-01-16T11:29:36;4.50;96.60
9984;DHT22;16737;50.932;6.780;2024-01-16T11:32:04;4.40;96.60
9984;DHT22;16737;50.932;6.780;2024-01-16T11:34:52;4.40;96.80
9984;DHT22;16737;50.932;6.780;2024-01-16T11:37:27;4.40;96.60
9984;DHT22;16737;50.932;6.780;2024-01-16T11:40:25;4.40;96.70
9984;DHT22;16737;50.932;6.780;2024-01-16T11:42:54;4.40;96.60
9984;DHT22;16737;50.932;6.780;2024-01-16T11:45:50;4.40;96.90
9984;DHT22;16737;50.932;6.780;2024-01-16T11:48:20;4.40;96.60
9984;DHT22;16737;50.932;6.780;2024-01-16T11:50:47;4.50;96.90
9984;DHT22;16737;50.932;6.780;2024-01-16T11:53:34;4.50;97.10
9984;DHT22;16737;50.932;6.780;2024-01-16T11:56:15;4.60;96.90
9984;DHT22;16737;50.932;6.780;2024-01-16T11:59:13;4.70;97.00
9984;DHT22;16737;50.932;6.780;2024-01-16T12:02:21;4.70;97.10
9984;DHT22;16737;50.932;6.780;2024-01-16T12:04:54;4.80;97.20
9984;DHT22;16737;50.932;6.780;2024-01-16T12:07:22;4.90;97.30
9984;DHT22;16737;50.932;6.780;2024-01-16T12:09:49;5.00;97.20
9984;DHT22;16737;50.932;6.780;2024-01-16T12:12:16;5.10;97.10
9984;DHT22;16737;50.932;6.780;2024-01-16T12:14:55;5.10;97.00
9984;DHT22;16737;50.932;6.780;2024-01-16T12:17:28;5.20;96.70
9984;DHT22;16737;50.932;6.780;2024-01-16T12:19:55;5.20;96.60
9984;DHT22;16737;50.932;6.780;2024-01-16T12:22:24;5.20;96.60
9984;DHT22;16737;50.932;6.780;2024-01-16T12:24:55;5.20;96.60
9984;DHT22;16737;50.932;6.780;2024-01-16T12:27:24;5.20;96.40
9984;DHT22;16737;50.932;6.780;2024-01-16T12:30:05;5.30;96.50
9984;DHT22;16737;50.932;6.780;2024-01-16T12:32:36;5.30;96.30
9984;DHT22;16737;50.932;6.780;2024-01-16T12:35:03;5.30;96.60
9984;DHT22;16737;50.932;6.780;2024-01-16T12:37:31;5.40;96.70
9984;DHT22;16737;50.932;6.780;2024-01-16T12:39:58;5.50;96.70
9984;DHT22;16737;50.932;6.780;2024-01-16T12:42:25;5.50;96.60
9984;DHT22;16737;50.932;6.780;2024-01-16T12:44:53;5.60;96.70
9984;DHT22;16737;50.932;6.780;2024-01-16T12:47:24;5.60;96.60
9984;DHT22;16737;50.932;6.780;2024-01-16T12:49:55;5.70;96.50
9984;DHT22;16737;50.932;6.780;2024-01-16T12:52:22;5.70;96.50
9984;DHT22;16737;50.932;6.780;2024-01-16T12:54:59;5.80;96.50
9984;DHT22;16737;50.932;6.780;2024-01-16T12:57:27;5.80;96.10
9984;DHT22;16737;50.932;6.780;2024-01-16T12:59:54;5.80;96.30
9984;DHT22;16737;50.932;6.780;2024-01-16T13:02:23;5.80;96.20
9984;DHT22;16737;50.932;6.780;2024-01-16T13:04:59;5.80;95.90
9984;DHT22;16737;50.932;6.780;2024-01-16T13:07:29;5.80;95.60
9984;DHT22;16737;50.932;6.780;2024-01-16T13:10:09;5.80;95.80
9984;DHT22;16737;50.932;6.780;2024-01-16T13:12:37;5.80;95.50
9984;DHT22;16737;50.932;6.780;2024-01-16T13:15:06;5.80;95.70
9984;DHT22;16737;50.932;6.780;2024-01-16T13:17:37;5.70;95.60
9984;DHT22;16737;50.932;6.780;2024-01-16T13:20:06;5.70;95.50
9984;DHT22;16737;50.932;6.780;2024-01-16T13:22:35;5.70;95.50
9984;DHT22;16737;50.932;6.780;2024-01-16T13:25:02;5.70;95.60
9984;DHT22;16737;50.932;6.780;2024-01-16T13:27:31;5.70;95.60
9984;DHT22;16737;50.932;6.780;2024-01-16T13:29:58;5.70;95.60
9984;DHT22;16737;50.932;6.780;2024-01-16T13:32:25;5.70;95.50
9984;DHT22;16737;50.932;6.780;2024-01-16T13:34:53;5.70;95.40
9984;DHT22;16737;50.932;6.780;2024-01-16T13:37:22;5.70;95.50
9984;DHT22;16737;50.932;6.780;2024-01-16T13:39:49;5.70;95.40
9984;DHT22;16737;50.932;6.780;2024-01-16T13:42:16;5.70;95.60
9984;DHT22;16737;50.932;6.780;2024-01-16T13:44:46;5.70;95.50
9984;DHT22;16737;50.932;6.780;2024-01-16T13:47:13;5.70;95.30
9984;DHT22;16737;50.932;6.780;2024-01-16T13:49:41;5.70;95.40
9984;DHT22;16737;50.932;6.780;2024-01-16T13:52:09;5.70;95.30
9984;DHT22;16737;50.932;6.780;2024-01-16T13:54:40;5.60;95.20
9984;DHT22;16737;50.932;6.780;2024-01-16T13:57:07;5.60;95.00
9984;DHT22;16737;50.932;6.780;2024-01-16T13:59:35;5.60;95.20
9984;DHT22;16737;50.932;6.780;2024-01-16T14:02:04;5.60;95.20
9984;DHT22;16737;50.932;6.780;2024-01-16T14:04:33;5.60;95.10
9984;DHT22;16737;50.932;6.780;2024-01-16T14:07:01;5.60;95.10
9984;DHT22;16737;50.932;6.780;2024-01-16T14:09:32;5.60;95.20
9984;DHT22;16737;50.932;6.780;2024-01-16T14:12:03;5.60;95.00
9984;DHT22;16737;50.932;6.780;2024-01-16T14:14:31;5.60;95.00
9984;DHT22;16737;50.932;6.780;2024-01-16T14:16:58;5.50;94.90
9984;DHT22;16737;50.932;6.780;2024-01-16T14:19:25;5.50;95.00
9984;DHT22;16737;50.932;6.780;2024-01-16T14:21:55;5.50;94.90
9984;DHT22;16737;50.932;6.780;2024-01-16T14:24:22;5.50;94.90
9984;DHT22;16737;50.932;6.780;2024-01-16T14:26:49;5.50;94.90
9984;DHT22;16737;50.932;6.780;2024-01-16T14:29:17;5.50;94.80
9984;DHT22;16737;50.932;6.780;2024-01-16T14:31:45;5.40;94.70
9984;DHT22;16737;50.932;6.780;2024-01-16T14:34:14;5.40;94.70
9984;DHT22;16737;50.932;6.780;2024-01-16T14:36:41;5.40;94.70
9984;DHT22;16737;50.932;6.780;2024-01-16T14:39:08;5.40;94.60
9984;DHT22;16737;50.932;6.780;2024-01-16T14:41:39;5.40;94.50
9984;DHT22;16737;50.932;6.780;2024-01-16T14:44:08;5.30;94.40
9984;DHT22;16737;50.932;6.780;2024-01-16T14:46:37;5.30;94.30
9984;DHT22;16737;50.932;6.780;2024-01-16T14:49:08;5.30;94.20
9984;DHT22;16737;50.932;6.780;2024-01-16T14:51:35;5.20;94.30
9984;DHT22;16737;50.932;6.780;2024-01-16T14:54:03;5.20;94.30
9984;DHT22;16737;50.932;6.780;2024-01-16T14:56:30;5.10;94.20
9984;DHT22;16737;50.932;6.780;2024-01-16T14:58:58;5.10;94.20
9984;DHT22;16737;50.932;6.780;2024-01-16T15:01:25;5.10;94.20
9984;DHT22;16737;50.932;6.780;2024-01-16T15:03:57;5.10;94.10
9984;DHT22;16737;50.932;6.780;2024-01-16T15:06:25;5.00;94.10
9984;DHT22;16737;50.932;6.780;2024-01-16T15:08:52;5.00;94.10
9984;DHT22;16737;50.932;6.780;2024-01-16T15:11:19;4.90;93.90
9984;DHT22;16737;50.932;6.780;2024-01-16T15:13:46;4.90;94.00
9984;DHT22;16737;50.932;6.780;2024-01-16T15:16:14;4.80;93.90
9984;DHT22;16737;50.932;6.780;2024-01-16T15:18:43;4.80;93.90
9984;DHT22;16737;50.932;6.780;2024-01-16T15:21:12;4.70;93.90
9984;DHT22;16737;50.932;6.780;2024-01-16T15:23:38;4.70;93.80
9984;DHT22;16737;50.932;6.780;2024-01-16T15:26:06;4.60;93.80
9984;DHT22;16737;50.932;6.780;2024-01-16T15:28:33;4.50;93.80
9984;DHT22;16737;50.932;6.780;2024-01-16T15:31:00;4.50;93.80
9984;DHT22;16737;50.932;6.780;2024-01-16T15:33:31;4.40;93.80
9984;DHT22;16737;50.932;6.780;2024-01-16T15:36:03;4.40;93.80
9984;DHT22;16737;50.932;6.780;2024-01-16T15:38:32;4.30;93.80
9984;DHT22;16737;50.932;6.780;2024-01-16T15:40:59;4.30;94.10
9984;DHT22;16737;50.932;6.780;2024-01-16T15:43:26;4.30;94.20
9984;DHT22;16737;50.932;6.780;2024-01-16T15:45:53;4.20;93.80
9984;DHT22;16737;50.932;6.780;2024-01-16T15:48:20;4.20;93.80
9984;DHT22;16737;50.932;6.780;2024-01-16T15:50:47;4.20;93.70
9984;DHT22;16737;50.932;6.780;2024-01-16T15:53:14;4.20;93.80
9984;DHT22;16737;50.932;6.780;2024-01-16T15:55:43;4.10;93.70
9984;DHT22;16737;50.932;6.780;2024-01-16T15:58:10;4.10;93.70
9984;DHT22;16737;50.932;6.780;2024-01-16T16:00:37;4.10;93.80
9984;DHT22;16737;50.932;6.780;2024-01-16T16:03:04;4.00;93.70
9984;DHT22;16737;50.932;6.780;2024-01-16T16:05:31;4.00;93.90
9984;DHT22;16737;50.932;6.780;2024-01-16T16:07:58;4.00;93.70
9984;DHT22;16737;50.932;6.780;2024-01-16T16:10:25;4.00;93.70
9984;DHT22;16737;50.932;6.780;2024-01-16T16:12:53;3.90;93.70
9984;DHT22;16737;50.932;6.780;2024-01-16T16:15:21;3.90;93.70
9984;DHT22;16737;50.932;6.780;2024-01-16T16:17:49;3.90;93.70